Time;durP1;ratioP1;P1;durP2;ratioP2;P2;SDS_P1;SDS_P2;PMS_P1;PMS_P2;Temp;Humidity;BMP_temperature;BMP_pressure;BME280_temperature;BME280_humidity;BME280_pressure;Samples;Min_cycle;Max_cycle;Signal;HPM_P1;HPM_P2
2022/06/24 00:01:14;;;;;;;6.05;4.32;;;17.20;99.90;;;;;;4992991;28;20267;-67
2022/06/24 00:03:43;;;;;;;5.38;4.72;;;17.10;99.90;;;;;;4992378;28;20216;-67
2022/06/24 00:06:14;;;;;;;7.38;4.63;;;17.00;99.90;;;;;;4993224;28;20209;-68
2022/06/24 00:08:50;;;;;;;6.10;4.72;;;17.10;99.90;;;;;;4992302;28;20200;-69
2022/06/24 00:11:17;;;;;;;5.30;4.80;;;17.00;99.90;;;;;;4974167;28;20192;-69
2022/06/24 00:13:44;;;;;;;5.43;4.63;;;16.90;99.90;;;;;;4981382;28;20201;-69
2022/06/24 00:16:10;;;;;;;7.80;4.90;;;16.80;99.90;;;;;;4992433;28;20302;-69
2022/06/24 00:18:37;;;;;;;6.20;4.82;;;16.80;99.90;;;;;;4988545;28;20201;-69
2022/06/24 00:21:12;;;;;;;6.65;4.95;;;16.90;99.90;;;;;;4987310;28;20205;-69
2022/06/24 00:23:40;;;;;;;5.45;4.68;;;16.90;99.90;;;;;;4987195;28;20204;-69
2022/06/24 00:26:09;;;;;;;5.07;4.35;;;16.90;99.90;;;;;;4988175;28;20202;-69
2022/06/24 00:28:36;;;;;;;6.28;4.80;;;17.10;99.90;;;;;;4985099;28;20205;-69
2022/06/24 00:31:04;;;;;;;5.10;4.45;;;17.30;99.90;;;;;;4991788;28;20205;-69
2022/06/24 00:33:36;;;;;;;5.35;4.30;;;17.60;99.90;;;;;;4991793;28;20651;-69
2022/06/24 00:36:06;;;;;;;5.38;4.38;;;17.80;99.90;;;;;;4991989;28;20228;-69
2022/06/24 00:38:34;;;;;;;5.15;4.65;;;18.00;99.90;;;;;;4993194;28;20202;-70
2022/06/24 00:41:02;;;;;;;5.68;4.07;;;18.00;99.90;;;;;;4992285;28;20209;-69
2022/06/24 00:43:34;;;;;;;7.40;4.63;;;18.50;99.90;;;;;;4993178;28;20211;-69
2022/06/24 00:46:12;;;;;;;5.18;4.50;;;18.50;99.90;;;;;;4992944;28;20204;-69
2022/06/24 00:48:43;;;;;;;6.40;4.35;;;18.50;99.90;;;;;;4992978;28;20236;-69
2022/06/24 00:51:10;;;;;;;7.10;4.68;;;18.20;99.90;;;;;;4992454;28;20655;-69
2022/06/24 00:53:41;;;;;;;6.57;4.90;;;17.90;99.90;;;;;;4992979;28;20193;-69
2022/06/24 00:56:10;;;;;;;5.03;4.40;;;17.70;99.90;;;;;;4992643;28;20558;-69
2022/06/24 00:58:39;;;;;;;6.07;4.70;;;17.70;99.90;;;;;;4993079;28;20196;-69
2022/06/24 01:01:06;;;;;;;5.50;4.55;;;17.60;99.90;;;;;;4992037;28;20216;-69
2022/06/24 01:03:39;;;;;;;11.13;5.25;;;17.40;99.90;;;;;;4992270;28;20205;-69
2022/06/24 01:06:06;;;;;;;8.30;4.90;;;17.20;99.90;;;;;;4992657;28;20215;-69
2022/06/24 01:08:33;;;;;;;7.20;5.00;;;17.40;99.90;;;;;;4992541;28;20667;-69
2022/06/24 01:11:00;;;;;;;5.57;4.40;;;17.80;99.90;;;;;;4992038;28;20201;-69
2022/06/24 01:13:27;;;;;;;7.50;4.88;;;18.20;99.90;;;;;;4992516;28;20204;-69
2022/06/24 01:15:55;;;;;;;5.82;4.75;;;18.40;99.10;;;;;;4992513;28;20220;-69
2022/06/24 01:18:22;;;;;;;5.15;4.65;;;18.50;98.00;;;;;;4973556;28;20648;-69
2022/06/24 01:20:50;;;;;;;6.30;4.55;;;18.50;97.10;;;;;;4988684;28;20251;-69
2022/06/24 01:23:24;;;;;;;5.32;4.80;;;18.60;96.80;;;;;;4997003;28;20207;-69
2022/06/24 01:25:51;;;;;;;8.38;4.63;;;18.50;95.50;;;;;;4996360;28;20204;-69
2022/06/24 01:28:18;;;;;;;4.70;4.30;;;18.60;95.90;;;;;;4996744;28;20232;-69
2022/06/24 01:30:45;;;;;;;5.70;4.75;;;18.50;96.30;;;;;;4994098;28;20232;-69
2022/06/24 01:33:12;;;;;;;6.47;5.03;;;18.70;94.20;;;;;;4983415;28;20731;-69
2022/06/24 01:35:39;;;;;;;5.80;4.75;;;18.70;93.80;;;;;;4995860;28;20221;-69
2022/06/24 01:38:06;;;;;;;7.28;4.93;;;18.60;95.20;;;;;;4996785;28;20211;-69
2022/06/24 01:40:34;;;;;;;6.15;4.65;;;18.40;98.90;;;;;;4995977;28;20244;-69
2022/06/24 01:43:02;;;;;;;6.75;4.75;;;18.10;99.90;;;;;;4996777;28;20635;-69
2022/06/24 01:45:29;;;;;;;7.47;5.25;;;18.00;99.90;;;;;;4996089;28;20197;-69
2022/06/24 01:47:56;;;;;;;6.10;4.80;;;17.60;99.90;;;;;;4996669;28;20553;-69
2022/06/24 01:50:23;;;;;;;5.65;5.05;;;17.50;99.90;;;;;;4995699;28;20650;-69
2022/06/24 01:52:49;;;;;;;5.80;4.63;;;17.60;99.90;;;;;;4996127;28;20201;-69
2022/06/24 01:55:17;;;;;;;6.65;5.15;;;17.70;99.90;;;;;;4996632;28;20576;-69
2022/06/24 01:57:45;;;;;;;5.53;4.97;;;17.70;99.90;;;;;;4996642;28;20255;-69
2022/06/24 02:00:13;;;;;;;6.18;4.63;;;17.60;99.90;;;;;;4987456;28;20201;-69
2022/06/24 02:02:40;;;;;;;6.15;4.57;;;17.50;99.90;;;;;;4996704;28;20534;-69
2022/06/24 02:05:08;;;;;;;6.07;4.85;;;17.50;99.90;;;;;;4996004;28;20197;-69
2022/06/24 02:07:35;;;;;;;5.70;5.20;;;17.40;99.90;;;;;;4976865;28;20213;-69
2022/06/24 02:15:31;;;;;;;6.00;5.30;;;17.00;99.90;;;;;;4995539;28;20256;-69
2022/06/24 02:17:58;;;;;;;7.43;5.40;;;17.00;99.90;;;;;;4996066;28;20204;-69
2022/06/24 02:20:25;;;;;;;6.32;5.30;;;17.10;99.90;;;;;;4994838;28;20587;-69
2022/06/24 02:22:52;;;;;;;5.75;5.13;;;17.20;99.90;;;;;;4987788;28;20223;-69
2022/06/24 02:25:19;;;;;;;6.10;5.18;;;17.20;99.90;;;;;;4991715;28;20200;-69
2022/06/24 02:27:48;;;;;;;9.60;5.20;;;17.10;99.90;;;;;;4995627;28;20216;-69
2022/06/24 02:30:14;;;;;;;6.53;5.43;;;17.20;99.90;;;;;;4994933;28;20205;-69
2022/06/24 02:32:41;;;;;;;6.60;5.50;;;17.30;99.90;;;;;;4995178;28;20254;-68
2022/06/24 02:35:08;;;;;;;9.18;5.57;;;17.20;99.90;;;;;;4995550;28;20205;-69
2022/06/24 02:37:36;;;;;;;5.70;5.10;;;17.00;99.90;;;;;;4995219;28;20659;-69
2022/06/24 02:42:46;;;;;;;14.75;10.15;;;17.10;99.90;;;;;;4994761;28;20193;-69
2022/06/24 02:45:13;;;;;;;7.32;5.68;;;17.20;99.90;;;;;;4995054;28;20216;-69
2022/06/24 02:47:40;;;;;;;7.90;6.03;;;17.20;99.90;;;;;;4995202;28;20212;-69
2022/06/24 02:50:07;;;;;;;6.43;4.93;;;17.30;99.90;;;;;;4994200;28;20200;-69
2022/06/24 02:52:34;;;;;;;5.93;5.07;;;17.20;99.90;;;;;;4994969;28;20205;-69
2022/06/24 02:55:01;;;;;;;5.72;5.03;;;17.30;99.90;;;;;;4994755;28;20215;-69
2022/06/24 02:57:28;;;;;;;7.45;4.72;;;17.30;99.90;;;;;;4995127;28;20228;-69
2022/06/24 02:59:56;;;;;;;6.25;5.10;;;17.40;99.90;;;;;;4994151;28;20212;-69
2022/06/24 03:02:23;;;;;;;5.65;4.93;;;17.30;99.90;;;;;;4991746;28;20212;-69
2022/06/24 03:04:49;;;;;;;6.45;5.10;;;17.20;99.90;;;;;;4981168;28;20202;-69
2022/06/24 03:07:16;;;;;;;5.68;5.10;;;17.20;99.90;;;;;;4992157;28;20216;-68
2022/06/24 03:09:43;;;;;;;9.18;5.72;;;17.20;99.90;;;;;;4993854;28;20205;-68
2022/06/24 03:12:11;;;;;;;6.65;5.60;;;17.20;99.90;;;;;;4995134;28;20223;-68
2022/06/24 03:14:37;;;;;;;6.10;5.47;;;17.20;99.90;;;;;;4993917;28;20805;-77
2022/06/24 03:17:06;;;;;;;6.00;5.45;;;17.10;99.90;;;;;;4994089;28;20229;-68
2022/06/24 03:19:33;;;;;;;7.20;5.57;;;17.00;99.90;;;;;;4994410;28;20561;-68
2022/06/24 03:21:59;;;;;;;7.18;5.70;;;16.80;99.90;;;;;;4994701;28;20632;-68
2022/06/24 03:24:26;;;;;;;6.63;5.47;;;16.70;99.90;;;;;;4994378;28;20200;-68
2022/06/24 03:26:53;;;;;;;7.18;5.78;;;16.60;99.90;;;;;;4994294;28;20204;-68
2022/06/24 03:29:20;;;;;;;8.60;6.20;;;16.70;99.90;;;;;;4993950;28;20197;-68
2022/06/24 03:31:47;;;;;;;9.00;5.95;;;16.80;99.90;;;;;;4994268;28;20557;-68
2022/06/24 03:34:15;;;;;;;6.35;5.68;;;16.80;99.90;;;;;;4994715;28;20201;-68
2022/06/24 03:36:41;;;;;;;6.60;5.93;;;16.80;99.90;;;;;;4994240;28;20236;-68
2022/06/24 03:39:08;;;;;;;8.70;5.63;;;16.90;99.90;;;;;;4994041;28;20550;-68
2022/06/24 03:41:35;;;;;;;6.80;5.90;;;16.90;99.90;;;;;;4994368;28;20216;-68
2022/06/24 03:44:02;;;;;;;11.20;5.88;;;17.10;99.90;;;;;;4993929;28;20212;-68
2022/06/24 03:46:29;;;;;;;7.60;5.65;;;17.30;99.90;;;;;;4994258;28;20201;-68
2022/06/24 03:48:55;;;;;;;7.50;6.47;;;17.40;99.90;;;;;;4994900;28;20640;-68
2022/06/24 03:51:24;;;;;;;6.38;5.78;;;17.30;99.90;;;;;;4993819;28;20209;-68
2022/06/24 03:53:50;;;;;;;6.22;5.63;;;17.30;99.90;;;;;;4994582;28;20223;-68
2022/06/24 03:56:17;;;;;;;6.13;5.53;;;17.60;99.90;;;;;;4994008;28;20232;-68
2022/06/24 03:58:44;;;;;;;6.78;5.85;;;17.70;99.90;;;;;;4994045;28;20216;-68
2022/06/24 04:01:11;;;;;;;7.13;5.85;;;17.70;99.90;;;;;;4993202;28;20564;-68
2022/06/24 04:03:38;;;;;;;6.22;5.45;;;17.80;99.90;;;;;;4985937;28;20201;-68
2022/06/24 04:06:05;;;;;;;6.60;5.68;;;17.70;99.90;;;;;;4993547;28;20197;-68
2022/06/24 04:08:34;;;;;;;8.38;5.85;;;17.80;99.90;;;;;;4985717;28;20200;-67
2022/06/24 04:11:09;;;;;;;7.72;5.60;;;18.00;99.90;;;;;;4990093;28;20204;-68
2022/06/24 04:13:36;;;;;;;8.93;5.75;;;19.00;99.90;;;;;;4993953;28;20216;-68
2022/06/24 04:16:02;;;;;;;8.35;5.65;;;19.80;99.70;;;;;;4993775;28;20590;-68
2022/06/24 04:18:29;;;;;;;9.32;5.90;;;20.30;97.60;;;;;;4994143;28;20212;-68
2022/06/24 04:20:56;;;;;;;7.28;5.20;;;20.40;96.20;;;;;;4993046;28;20213;-68
2022/06/24 04:23:23;;;;;;;6.15;5.53;;;21.40;93.40;;;;;;4993773;28;20219;-69
2022/06/24 04:25:51;;;;;;;7.65;5.38;;;21.90;88.70;;;;;;4984240;28;20558;-68
2022/06/24 04:28:19;;;;;;;8.65;6.07;;;21.20;96.20;;;;;;4984576;28;20660;-68
2022/06/24 04:30:45;;;;;;;23.40;6.65;;;20.40;99.90;;;;;;4984723;28;20205;-68
2022/06/24 04:33:12;;;;;;;23.42;6.70;;;20.00;99.90;;;;;;4986672;28;20212;-68
2022/06/24 04:35:41;;;;;;;18.05;5.88;;;20.00;99.90;;;;;;4990957;28;20220;-68
2022/06/24 04:38:08;;;;;;;19.42;7.57;;;20.10;99.90;;;;;;4988958;28;20644;-68
2022/06/24 04:40:34;;;;;;;21.50;6.57;;;20.40;99.90;;;;;;4983405;28;20201;-68
2022/06/24 04:43:03;;;;;;;14.45;5.70;;;21.00;99.90;;;;;;4990013;28;20206;-68
2022/06/24 04:45:30;;;;;;;16.27;6.50;;;20.60;99.90;;;;;;4987294;28;20522;-68
2022/06/24 04:47:57;;;;;;;19.10;6.35;;;20.50;99.90;;;;;;4985951;28;20202;-68
2022/06/24 04:50:24;;;;;;;10.30;6.03;;;20.60;99.90;;;;;;4986687;28;20201;-68
2022/06/24 04:52:51;;;;;;;13.57;6.32;;;20.70;99.90;;;;;;4986427;28;20566;-68
2022/06/24 04:55:18;;;;;;;16.45;6.03;;;20.90;99.90;;;;;;4987972;28;20209;-68
2022/06/24 04:57:45;;;;;;;22.25;7.07;;;21.00;99.90;;;;;;4981748;28;20217;-68
2022/06/24 05:00:15;;;;;;;14.93;5.95;;;21.00;99.90;;;;;;4984311;28;20205;-68
2022/06/24 05:02:42;;;;;;;17.38;5.88;;;21.00;99.90;;;;;;4986768;28;20233;-68
2022/06/24 05:05:10;;;;;;;8.38;5.28;;;20.90;99.90;;;;;;4986298;28;20256;-68
2022/06/24 05:07:37;;;;;;;8.48;4.90;;;21.10;99.90;;;;;;4989969;28;20205;-68
2022/06/24 05:10:05;;;;;;;9.43;4.93;;;21.60;98.60;;;;;;4986941;28;20208;-68
2022/06/24 05:12:32;;;;;;;15.48;5.53;;;22.20;97.80;;;;;;4986565;28;20209;-68
2022/06/24 05:14:59;;;;;;;13.02;5.40;;;22.70;98.70;;;;;;4988262;28;20197;-68
2022/06/24 05:17:27;;;;;;;7.13;4.50;;;22.30;96.00;;;;;;4984541;28;20711;-68
2022/06/24 05:19:54;;;;;;;8.73;5.40;;;22.20;95.60;;;;;;4983286;28;20553;-68
2022/06/24 05:22:21;;;;;;;6.45;4.55;;;21.90;96.20;;;;;;4986602;28;20667;-68
2022/06/24 05:24:48;;;;;;;9.10;4.80;;;21.80;94.80;;;;;;4987895;28;20547;-68
2022/06/24 05:27:15;;;;;;;7.85;4.85;;;21.90;94.80;;;;;;4985478;28;20559;-68
2022/06/24 05:29:42;;;;;;;6.47;5.05;;;22.80;95.70;;;;;;4990679;28;20297;-68
2022/06/24 05:32:09;;;;;;;9.32;5.03;;;22.50;98.30;;;;;;4990130;28;20212;-68
2022/06/24 05:34:37;;;;;;;8.73;5.00;;;22.10;99.30;;;;;;4989285;28;20666;-68
2022/06/24 05:37:04;;;;;;;6.20;4.60;;;22.20;99.90;;;;;;4984152;28;20232;-68
2022/06/24 05:39:31;;;;;;;11.88;6.00;;;22.40;94.90;;;;;;4990190;28;20950;-68
2022/06/24 05:41:58;;;;;;;16.15;5.90;;;22.90;96.50;;;;;;4984720;28;20212;-68
2022/06/24 05:44:25;;;;;;;8.05;5.75;;;22.70;96.90;;;;;;4986833;28;20212;-68
2022/06/24 05:46:54;;;;;;;13.13;5.95;;;24.50;92.20;;;;;;4991854;28;20204;-68
2022/06/24 05:49:21;;;;;;;8.15;5.05;;;24.00;82.70;;;;;;4989804;28;20220;-68
2022/06/24 05:51:50;;;;;;;10.75;5.43;;;23.40;96.80;;;;;;4985493;28;20209;-68
2022/06/24 05:57:01;;;;;;;7.82;5.07;;;23.50;99.20;;;;;;4987009;28;20690;-68
2022/06/24 05:59:28;;;;;;;10.80;5.38;;;24.20;92.80;;;;;;4985098;28;20208;-68
2022/06/24 06:01:55;;;;;;;16.75;5.43;;;23.70;87.10;;;;;;4983150;28;20206;-68
2022/06/24 06:04:22;;;;;;;15.57;5.60;;;23.20;90.80;;;;;;4989632;28;20300;-68
2022/06/24 06:06:51;;;;;;;12.38;5.22;;;23.20;92.80;;;;;;4988671;28;20342;-68
2022/06/24 06:09:18;;;;;;;12.82;5.05;;;23.20;95.00;;;;;;4992803;28;20295;-68
2022/06/24 06:11:45;;;;;;;7.75;4.75;;;23.20;94.20;;;;;;4993963;28;20205;-68
2022/06/24 06:14:12;;;;;;;9.85;4.95;;;23.50;95.60;;;;;;4985152;28;20197;-68
2022/06/24 06:16:39;;;;;;;10.95;5.07;;;24.00;90.40;;;;;;4988158;28;20236;-68
2022/06/24 06:19:06;;;;;;;10.35;5.25;;;24.20;91.20;;;;;;4989898;28;20213;-68
2022/06/24 06:21:32;;;;;;;6.38;5.28;;;24.10;83.00;;;;;;4991914;28;20699;-68
2022/06/24 06:24:01;;;;;;;5.50;5.00;;;24.30;81.50;;;;;;4987760;28;20220;-68
2022/06/24 06:26:29;;;;;;;6.90;5.13;;;24.40;82.00;;;;;;4988215;28;20644;-68
2022/06/24 06:28:55;;;;;;;6.57;5.20;;;24.30;71.90;;;;;;4989226;28;20237;-68
2022/06/24 06:31:22;;;;;;;5.40;4.82;;;24.40;67.90;;;;;;4991885;28;20279;-68
2022/06/24 06:33:49;;;;;;;5.82;4.80;;;24.40;68.90;;;;;;4987876;28;20663;-68
2022/06/24 06:36:16;;;;;;;7.78;4.72;;;24.30;68.90;;;;;;4992728;28;20220;-68
2022/06/24 06:38:43;;;;;;;4.68;4.28;;;24.40;63.70;;;;;;4988718;28;20552;-68
2022/06/24 06:41:11;;;;;;;6.38;4.93;;;24.60;64.90;;;;;;4986827;28;20206;-68
2022/06/24 06:43:39;;;;;;;5.90;4.55;;;24.70;67.70;;;;;;4992882;28;20230;-68
2022/06/24 06:46:09;;;;;;;7.47;5.00;;;24.70;66.40;;;;;;4984779;28;20255;-68
2022/06/24 06:48:36;;;;;;;5.70;4.82;;;24.40;59.10;;;;;;4986492;28;20257;-68
2022/06/24 06:51:03;;;;;;;7.80;4.63;;;24.50;60.70;;;;;;4990132;28;20260;-68
2022/06/24 06:53:30;;;;;;;7.55;5.35;;;24.50;62.60;;;;;;4991012;28;20212;-68
2022/06/24 06:55:57;;;;;;;7.00;5.40;;;24.50;59.80;;;;;;4989332;28;20201;-68
2022/06/24 06:58:25;;;;;;;5.22;4.72;;;24.40;58.90;;;;;;4983273;28;20228;-68
2022/06/24 07:00:52;;;;;;;5.20;4.68;;;24.40;57.60;;;;;;4992339;28;20212;-68
2022/06/24 07:03:19;;;;;;;8.45;4.80;;;24.20;55.50;;;;;;4986579;28;20206;-68
2022/06/24 07:05:47;;;;;;;5.28;4.35;;;24.30;57.90;;;;;;4992100;28;20201;-68
2022/06/24 07:08:15;;;;;;;5.20;4.70;;;24.40;56.90;;;;;;4989247;28;20636;-68
2022/06/24 07:10:43;;;;;;;5.28;4.53;;;24.40;55.40;;;;;;4989636;28;20250;-68
2022/06/24 07:13:10;;;;;;;5.93;4.82;;;24.30;55.70;;;;;;4984689;28;20540;-68
2022/06/24 07:15:39;;;;;;;7.50;4.57;;;24.30;54.90;;;;;;4992262;28;20204;-68
2022/06/24 07:18:06;;;;;;;9.18;4.50;;;24.30;54.60;;;;;;4980861;28;20232;-68
2022/06/24 07:20:33;;;;;;;5.72;4.78;;;24.40;58.10;;;;;;4988381;28;20209;-69
2022/06/24 07:23:00;;;;;;;8.00;4.35;;;24.50;59.40;;;;;;4991862;28;20267;-68
2022/06/24 07:25:27;;;;;;;7.30;4.32;;;24.40;56.50;;;;;;4992396;28;20209;-68
2022/06/24 07:27:54;;;;;;;6.18;4.18;;;24.50;56.40;;;;;;4990162;28;20196;-69
2022/06/24 07:30:21;;;;;;;7.90;4.68;;;24.50;57.40;;;;;;4992226;28;20575;-68
2022/06/24 07:32:49;;;;;;;6.43;4.55;;;24.60;57.70;;;;;;4990724;28;20210;-68
2022/06/24 07:35:16;;;;;;;7.15;4.35;;;24.60;57.40;;;;;;4988961;28;20686;-68
2022/06/24 07:37:43;;;;;;;5.55;4.68;;;24.60;56.80;;;;;;4987219;28;20237;-68
2022/06/24 07:40:11;;;;;;;6.57;4.80;;;24.50;58.30;;;;;;4990786;28;20549;-68
2022/06/24 07:42:37;;;;;;;9.35;4.45;;;24.70;59.20;;;;;;4985263;28;20576;-68
2022/06/24 07:45:05;;;;;;;5.95;4.40;;;24.80;59.80;;;;;;4987630;28;20222;-68
2022/06/24 07:47:35;;;;;;;7.43;4.53;;;24.90;59.50;;;;;;4992595;28;20205;-68
2022/06/24 07:50:03;;;;;;;7.85;4.40;;;24.80;59.00;;;;;;4980722;28;20205;-68
2022/06/24 07:52:30;;;;;;;5.70;3.22;;;25.00;59.80;;;;;;4988074;28;20691;-69
2022/06/24 07:57:38;;;;;;;6.45;2.95;;;25.20;57.60;;;;;;4988678;28;20256;-68
2022/06/24 08:00:06;;;;;;;6.45;3.72;;;25.30;57.50;;;;;;4988292;28;20217;-68
2022/06/24 08:02:33;;;;;;;5.85;2.92;;;25.40;59.00;;;;;;4987440;28;20213;-68
2022/06/24 08:05:00;;;;;;;4.05;3.08;;;25.40;58.60;;;;;;4988488;28;20213;-68
2022/06/24 08:07:28;;;;;;;7.32;3.30;;;25.30;58.90;;;;;;4986053;28;20291;-69
2022/06/24 08:09:55;;;;;;;5.90;3.30;;;25.20;58.30;;;;;;4985821;28;20656;-68
2022/06/24 08:12:22;;;;;;;4.65;3.40;;;25.10;59.00;;;;;;4987282;28;20211;-68
2022/06/24 08:14:49;;;;;;;7.25;3.60;;;25.20;61.30;;;;;;4983457;28;20574;-68
2022/06/24 08:17:15;;;;;;;3.45;3.15;;;25.40;62.30;;;;;;4987116;28;20235;-69
2022/06/24 08:19:42;;;;;;;5.85;3.38;;;25.50;60.00;;;;;;4990569;28;20201;-69
2022/06/24 08:22:09;;;;;;;5.28;3.20;;;25.60;60.10;;;;;;4977687;28;20764;-68
2022/06/24 08:24:37;;;;;;;5.45;2.83;;;25.80;59.20;;;;;;4991259;28;20209;-68
2022/06/24 08:27:05;;;;;;;7.20;3.00;;;25.80;57.80;;;;;;4989439;28;20305;-68
2022/06/24 08:29:31;;;;;;;5.55;2.75;;;25.70;58.70;;;;;;4988061;28;20205;-69
2022/06/24 08:31:58;;;;;;;6.97;3.08;;;25.90;58.70;;;;;;4985411;28;20215;-68
2022/06/24 08:34:25;;;;;;;5.25;2.95;;;25.90;57.10;;;;;;4986999;28;20589;-68
2022/06/24 08:36:52;;;;;;;7.63;2.83;;;25.90;59.60;;;;;;4989492;28;20206;-68
2022/06/24 08:39:19;;;;;;;6.97;2.65;;;25.90;60.00;;;;;;4983685;28;20217;-68
2022/06/24 08:41:49;;;;;;;3.92;2.22;;;25.80;57.20;;;;;;4989101;28;20205;-69
2022/06/24 08:44:16;;;;;;;5.55;2.20;;;25.80;57.30;;;;;;4990139;28;20212;-69
2022/06/24 08:46:43;;;;;;;3.80;2.70;;;25.80;57.80;;;;;;4986579;28;20656;-69
2022/06/24 08:49:10;;;;;;;5.13;2.38;;;25.70;58.10;;;;;;4988755;28;20209;-68
2022/06/24 08:51:37;;;;;;;5.57;2.60;;;25.70;59.40;;;;;;4989534;28;20220;-69
2022/06/24 08:54:06;;;;;;;5.30;2.58;;;25.60;59.50;;;;;;4984038;28;20563;-68
2022/06/24 08:56:34;;;;;;;5.40;2.33;;;25.50;59.60;;;;;;4984708;28;20206;-68
2022/06/24 08:59:03;;;;;;;5.13;2.25;;;25.50;61.10;;;;;;4988432;28;20254;-69
2022/06/24 09:01:29;;;;;;;5.18;2.35;;;25.30;59.40;;;;;;4990435;28;20208;-68
2022/06/24 09:03:56;;;;;;;3.17;2.20;;;25.10;61.40;;;;;;4983940;28;20209;-68
2022/06/24 09:06:23;;;;;;;7.82;3.03;;;25.00;62.40;;;;;;4986486;28;20205;-68
2022/06/24 09:08:53;;;;;;;4.95;2.50;;;25.00;61.80;;;;;;4987885;28;20198;-68
2022/06/24 09:11:20;;;;;;;5.80;2.42;;;25.10;63.70;;;;;;4985806;28;20209;-69
2022/06/24 09:13:49;;;;;;;8.63;3.58;;;25.20;65.10;;;;;;4987631;28;20204;-69
2022/06/24 09:16:19;;;;;;;5.65;2.80;;;25.00;64.40;;;;;;4990013;28;20675;-69
2022/06/24 09:18:57;;;;;;;4.05;2.58;;;24.90;65.00;;;;;;4985094;28;20304;-69
2022/06/24 09:21:28;;;;;;;6.25;2.70;;;24.90;65.20;;;;;;4988759;28;20209;-69
2022/06/24 09:23:57;;;;;;;4.72;2.92;;;24.90;66.00;;;;;;4990483;28;20569;-69
2022/06/24 09:26:32;;;;;;;7.20;2.22;;;24.80;67.10;;;;;;4986040;28;20217;-69
2022/06/24 09:28:59;;;;;;;5.25;2.58;;;24.80;68.30;;;;;;4986090;28;20197;-69
2022/06/24 09:31:28;;;;;;;3.70;2.50;;;24.80;69.70;;;;;;4986356;28;20208;-69
2022/06/24 09:33:56;;;;;;;5.57;2.83;;;24.70;68.20;;;;;;4989804;28;20201;-69
2022/06/24 09:36:25;;;;;;;5.63;2.28;;;24.80;68.90;;;;;;4982073;28;20210;-68
2022/06/24 09:38:54;;;;;;;6.85;2.75;;;24.80;69.70;;;;;;4986876;28;20228;-69
2022/06/24 09:41:22;;;;;;;4.90;2.70;;;24.80;69.30;;;;;;4988177;28;20204;-68
2022/06/24 09:43:48;;;;;;;4.05;2.67;;;24.70;70.50;;;;;;4989291;28;20205;-68
2022/06/24 09:46:19;;;;;;;4.53;2.90;;;24.70;70.70;;;;;;4994093;28;20212;-77
2022/06/24 09:48:47;;;;;;;4.45;3.00;;;24.70;74.20;;;;;;4989013;28;20197;-77
2022/06/24 09:51:15;;;;;;;2.88;2.50;;;24.70;76.40;;;;;;4986183;28;20197;-77
2022/06/24 09:53:42;;;;;;;3.08;2.55;;;24.80;75.80;;;;;;4993039;28;20264;-77
2022/06/24 09:56:10;;;;;;;6.18;2.60;;;24.80;76.40;;;;;;4988723;28;20201;-76
2022/06/24 09:58:38;;;;;;;4.95;2.50;;;24.80;74.10;;;;;;4997232;28;20221;-78
2022/06/24 10:01:05;;;;;;;6.60;2.60;;;24.60;84.10;;;;;;4994004;28;20202;-77
2022/06/24 10:03:34;;;;;;;7.53;4.45;;;24.40;91.60;;;;;;4987840;28;20251;-77
2022/06/24 10:06:05;;;;;;;8.20;3.58;;;24.40;99.20;;;;;;4993798;28;20198;-77
2022/06/24 10:08:34;;;;;;;5.40;2.90;;;24.40;95.30;;;;;;4994379;28;20205;-77
2022/06/24 10:11:11;;;;;;;5.63;2.85;;;24.60;97.20;;;;;;4994240;28;20659;-77
2022/06/24 10:13:38;;;;;;;5.50;3.30;;;24.60;97.20;;;;;;4996584;28;20670;-77
2022/06/24 10:16:06;;;;;;;3.45;2.63;;;24.60;94.60;;;;;;4987442;28;20241;-77
2022/06/24 10:18:36;;;;;;;5.65;3.92;;;24.70;96.10;;;;;;4983445;28;20303;-77
2022/06/24 10:21:06;;;;;;;6.55;4.18;;;24.60;95.20;;;;;;4988357;28;20651;-77
2022/06/24 10:23:37;;;;;;;9.55;3.58;;;24.70;99.10;;;;;;4991578;28;20208;-77
2022/06/24 10:26:16;;;;;;;9.27;3.70;;;24.40;95.10;;;;;;4991036;28;20205;-77
2022/06/24 10:29:20;;;;;;;5.68;3.50;;;24.50;99.90;;;;;;4993335;28;20243;-78
2022/06/24 10:34:44;;;;;;;6.03;3.42;;;24.30;99.50;;;;;;4973637;28;20593;-77
2022/06/24 10:37:29;;;;;;;8.68;3.70;;;24.30;99.90;;;;;;4991069;28;20687;-77
2022/06/24 10:39:58;;;;;;;5.93;3.60;;;24.10;99.90;;;;;;4990145;28;20649;-77
2022/06/24 10:42:26;;;;;;;6.78;3.55;;;24.00;99.90;;;;;;4991110;28;20259;-76
2022/06/24 10:44:58;;;;;;;6.88;3.42;;;23.60;99.90;;;;;;4986209;28;20243;-75
2022/06/24 10:47:42;;;;;;;4.43;3.30;;;23.30;99.90;;;;;;4992515;28;20322;-76
2022/06/24 10:50:18;;;;;;;4.85;3.58;;;23.20;99.90;;;;;;4987449;28;20252;-76
2022/06/24 10:53:00;;;;;;;6.03;3.60;;;23.10;99.90;;;;;;4985905;28;20620;-77
2022/06/24 10:55:38;;;;;;;9.25;3.45;;;23.10;99.90;;;;;;4986291;28;20267;-76
2022/06/24 10:58:09;;;;;;;6.18;3.33;;;22.70;99.90;;;;;;4985342;28;20212;-76
2022/06/24 11:01:02;;;;;;;3.83;2.80;;;22.70;99.90;;;;;;4991850;28;20204;-76
2022/06/24 11:03:37;;;;;;;4.07;3.00;;;23.00;99.90;;;;;;4988967;28;20216;-76
2022/06/24 11:06:04;;;;;;;4.38;2.85;;;22.80;99.90;;;;;;4977928;28;20243;-76
2022/06/24 11:08:37;;;;;;;3.97;2.72;;;22.60;99.90;;;;;;4992629;28;20212;-76
2022/06/24 11:11:05;;;;;;;3.03;2.65;;;22.30;99.90;;;;;;4989051;28;20202;-76
2022/06/24 11:13:32;;;;;;;4.40;2.45;;;22.40;99.90;;;;;;4986753;28;20260;-76
2022/06/24 11:16:00;;;;;;;4.45;2.60;;;22.40;99.90;;;;;;4993319;28;20205;-76
2022/06/24 11:18:29;;;;;;;3.33;2.45;;;22.30;99.90;;;;;;4988058;28;20224;-76
2022/06/24 11:20:59;;;;;;;8.85;3.80;;;22.40;99.90;;;;;;4988140;28;20208;-76
2022/06/24 11:23:28;;;;;;;5.00;3.55;;;22.60;99.90;;;;;;4992619;28;20647;-76
2022/06/24 11:26:01;;;;;;;6.10;3.08;;;22.70;99.90;;;;;;4987505;28;20209;-76
2022/06/24 11:28:30;;;;;;;5.20;2.65;;;22.70;99.90;;;;;;4992605;28;20213;-76
2022/06/24 11:31:15;;;;;;;7.35;2.85;;;22.60;99.90;;;;;;4989923;28;20228;-76
2022/06/24 11:33:42;;;;;;;3.88;2.55;;;22.30;99.90;;;;;;4991139;28;20219;-76
2022/06/24 11:36:09;;;;;;;4.63;2.85;;;22.70;99.90;;;;;;4987352;28;20217;-76
2022/06/24 11:38:49;;;;;;;5.28;2.58;;;22.80;99.90;;;;;;4989421;28;20231;-76
2022/06/24 11:41:26;;;;;;;5.88;2.70;;;22.70;99.90;;;;;;4986255;28;20208;-75
2022/06/24 11:43:53;;;;;;;3.50;2.35;;;23.00;99.90;;;;;;4986344;28;20201;-76
2022/06/24 11:46:20;;;;;;;6.05;2.53;;;23.20;99.90;;;;;;4987433;28;20564;-76
2022/06/24 11:48:47;;;;;;;4.82;2.50;;;23.20;99.90;;;;;;4989854;28;20198;-76
2022/06/24 11:51:18;;;;;;;3.33;2.47;;;23.40;99.90;;;;;;4982878;28;20829;-76
2022/06/24 11:53:57;;;;;;;5.03;2.55;;;23.50;99.90;;;;;;4988276;28;20205;-76
2022/06/24 11:56:27;;;;;;;5.38;2.08;;;23.70;99.90;;;;;;4986945;28;20210;-76
2022/06/24 11:58:55;;;;;;;5.50;2.78;;;23.40;99.90;;;;;;4985657;28;20260;-76
2022/06/24 12:01:22;;;;;;;5.63;2.45;;;23.50;99.90;;;;;;4986425;28;20210;-76
2022/06/24 12:03:50;;;;;;;5.90;2.20;;;23.30;99.90;;;;;;4990508;28;20210;-76
2022/06/24 12:06:17;;;;;;;4.43;2.15;;;23.60;99.90;;;;;;4987378;28;20209;-76
2022/06/24 12:08:45;;;;;;;3.08;2.20;;;24.00;99.90;;;;;;4990508;28;20212;-76
2022/06/24 12:11:16;;;;;;;3.85;2.13;;;24.10;99.90;;;;;;4991254;28;20227;-76
2022/06/24 12:13:58;;;;;;;5.50;2.38;;;23.80;99.90;;;;;;4986217;28;20208;-76
2022/06/24 12:16:25;;;;;;;3.92;2.30;;;24.00;99.90;;;;;;4985143;28;20210;-76
2022/06/24 12:18:51;;;;;;;2.72;2.03;;;23.90;99.90;;;;;;4991116;28;20227;-77
2022/06/24 12:21:25;;;;;;;5.20;2.42;;;23.90;99.90;;;;;;4989321;28;20216;-76
2022/06/24 12:23:52;;;;;;;4.97;2.35;;;23.90;99.90;;;;;;4989450;28;20643;-77
2022/06/24 12:26:21;;;;;;;5.70;2.53;;;24.10;99.90;;;;;;4984723;28;20206;-77
2022/06/24 12:29:03;;;;;;;5.20;1.92;;;24.20;99.90;;;;;;4992258;28;20201;-77
2022/06/24 12:31:31;;;;;;;3.35;2.10;;;24.30;99.90;;;;;;4988746;28;20204;-77
2022/06/24 12:33:59;;;;;;;4.68;2.15;;;24.30;99.90;;;;;;4991228;28;20200;-77
2022/06/24 12:36:35;;;;;;;7.05;2.85;;;24.30;99.90;;;;;;4988487;28;20213;-77
2022/06/24 12:39:05;;;;;;;3.75;3.15;;;24.40;99.90;;;;;;4992976;28;20240;-77
2022/06/24 12:41:43;;;;;;;4.35;2.83;;;24.40;99.90;;;;;;4993925;28;20255;-77
2022/06/24 12:44:11;;;;;;;3.88;2.35;;;24.50;99.90;;;;;;4993781;28;20223;-77
2022/06/24 12:50:35;;;;;;;4.72;2.83;;;24.50;99.90;;;;;;4993696;28;20557;-77
2022/06/24 12:52:30;;;;;;;4.70;2.63;;;24.80;99.90;;;;;;4988397;28;20237;-69
2022/06/24 12:54:57;;;;;;;2.72;2.33;;;24.90;99.90;;;;;;4972899;28;20212;-69
2022/06/24 12:57:23;;;;;;;6.03;2.30;;;24.90;99.90;;;;;;4985911;28;20201;-69
2022/06/24 12:59:52;;;;;;;6.82;2.45;;;25.00;99.90;;;;;;4988479;28;20223;-69
2022/06/24 13:02:19;;;;;;;4.97;2.50;;;25.20;99.90;;;;;;4987801;28;20275;-69
2022/06/24 13:04:45;;;;;;;3.38;1.88;;;25.30;99.90;;;;;;4988764;28;20577;-69
2022/06/24 13:07:12;;;;;;;5.47;2.03;;;25.30;99.90;;;;;;4987458;28;20204;-69
2022/06/24 13:09:39;;;;;;;4.07;2.33;;;25.20;99.90;;;;;;4988781;28;20213;-70
2022/06/24 13:12:07;;;;;;;4.32;2.33;;;25.30;99.90;;;;;;4989424;28;20220;-69